createdAt,value
2023-03-15T00:05:46.363Z,1.40
2023-03-15T00:11:49.442Z,1.60
2023-03-15T00:17:51.348Z,2.10
2023-03-15T00:23:53.310Z,1.70
2023-03-15T00:29:55.236Z,1.90
2023-03-15T00:35:57.133Z,2.03
2023-03-15T00:41:59.040Z,2.60
2023-03-15T00:48:00.946Z,1.80
2023-03-15T00:54:03.218Z,2.00
2023-03-15T01:00:05.921Z,1.80
2023-03-15T01:06:20.712Z,2.20
2023-03-15T01:12:22.610Z,2.50
2023-03-15T01:18:24.957Z,2.30
2023-03-15T01:24:26.844Z,2.17
2023-03-15T01:30:28.793Z,2.57
2023-03-15T01:36:30.760Z,1.73
2023-03-15T01:42:32.748Z,2.00
2023-03-15T01:48:46.360Z,1.67
2023-03-15T01:54:57.194Z,3.10
2023-03-15T02:00:59.131Z,2.00
2023-03-15T02:07:03.639Z,1.93
2023-03-15T02:13:07.234Z,1.57
2023-03-15T02:19:20.460Z,1.60
2023-03-15T02:25:49.918Z,2.47
2023-03-15T02:31:53.135Z,1.77
2023-03-15T02:37:55.360Z,1.70
2023-03-15T02:44:05.506Z,1.53
2023-03-15T02:50:08.272Z,2.00
2023-03-15T02:56:10.176Z,1.93
2023-03-15T03:02:13.357Z,2.00
2023-03-15T03:08:16.488Z,1.70
2023-03-15T03:14:18.529Z,1.93
2023-03-15T03:20:20.692Z,1.67
2023-03-15T03:26:28.022Z,1.87
2023-03-15T03:32:29.993Z,2.00
2023-03-15T03:38:31.978Z,1.63
2023-03-15T03:44:33.862Z,2.50
2023-03-15T03:50:35.885Z,1.97
2023-03-15T03:56:39.143Z,2.73
2023-03-15T04:02:44.353Z,2.43
2023-03-15T04:08:46.306Z,3.17
2023-03-15T04:14:48.200Z,2.60
2023-03-15T04:20:54.483Z,3.67
2023-03-15T04:26:57.927Z,3.07
2023-03-15T04:33:00.074Z,3.70
2023-03-15T04:39:07.206Z,2.67
2023-03-15T04:45:09.676Z,2.60
2023-03-15T04:51:11.593Z,4.20
2023-03-15T04:57:13.515Z,3.10
2023-03-15T05:03:15.446Z,2.67
2023-03-15T05:09:17.975Z,4.03
2023-03-15T05:15:20.307Z,4.40
2023-03-15T05:21:22.194Z,3.33
2023-03-15T05:27:24.107Z,4.00
2023-03-15T05:33:26.257Z,3.70
2023-03-15T05:39:28.203Z,3.70
2023-03-15T05:45:30.318Z,3.20
2023-03-15T05:51:32.243Z,4.57
2023-03-15T05:57:34.141Z,4.03
2023-03-15T06:03:36.264Z,3.80
2023-03-15T06:09:38.215Z,3.97
2023-03-15T06:15:40.277Z,3.93
2023-03-15T06:21:42.190Z,4.40
2023-03-15T06:27:44.080Z,4.57
2023-03-15T06:33:45.992Z,6.30
2023-03-15T06:39:48.249Z,7.10
2023-03-15T06:45:50.178Z,5.67
2023-03-15T06:51:52.104Z,6.20
2023-03-15T06:57:54.067Z,6.77
2023-03-15T07:03:55.958Z,6.00
2023-03-15T07:09:57.868Z,5.70
2023-03-15T07:15:59.910Z,6.70
2023-03-15T07:22:01.871Z,5.60
2023-03-15T07:28:03.887Z,3.50
2023-03-15T07:34:05.769Z,8.83
2023-03-15T07:40:10.007Z,4.60
2023-03-15T07:46:12.012Z,3.17
2023-03-15T07:52:13.950Z,3.20
2023-03-15T07:58:18.475Z,2.97
2023-03-15T08:04:21.882Z,3.00
2023-03-15T08:10:23.945Z,2.53
2023-03-15T08:16:25.924Z,2.83
2023-03-15T08:22:27.886Z,2.57
2023-03-15T08:28:29.740Z,2.70
2023-03-15T08:34:34.959Z,2.70
2023-03-15T08:40:38.858Z,2.60
2023-03-15T08:46:41.419Z,2.70
2023-03-15T08:52:43.813Z,1.53
2023-03-15T08:58:45.954Z,2.30
2023-03-15T09:04:48.089Z,1.70
2023-03-15T09:10:53.518Z,1.80
2023-03-15T09:16:55.460Z,2.40
2023-03-15T09:22:58.838Z,1.80
2023-03-15T09:29:00.748Z,2.83
2023-03-15T09:35:08.766Z,3.20
2023-03-15T09:41:31.857Z,2.80
2023-03-15T09:47:54.794Z,3.60
2023-03-15T09:54:32.258Z,3.43
2023-03-15T10:00:56.855Z,3.63
2023-03-15T10:07:02.889Z,3.20
2023-03-15T10:13:33.135Z,3.90
2023-03-15T10:19:34.875Z,2.80
2023-03-15T10:25:38.840Z,1.97
2023-03-15T10:31:45.111Z,2.50
2023-03-15T10:37:47.901Z,2.17
2023-03-15T10:44:06.237Z,1.83
2023-03-15T10:50:16.583Z,1.90
2023-03-15T10:56:28.639Z,5.07
2023-03-15T11:02:31.667Z,2.33
2023-03-15T11:08:42.947Z,2.87
2023-03-15T11:14:49.315Z,1.70
2023-03-15T11:20:54.587Z,2.43
2023-03-15T11:27:04.094Z,2.30
2023-03-15T11:33:09.437Z,6.50
2023-03-15T11:39:22.911Z,2.50
2023-03-15T11:45:34.821Z,1.50
2023-03-15T11:51:37.174Z,1.67
2023-03-15T11:57:46.212Z,1.20
2023-03-15T12:03:49.434Z,1.40
2023-03-15T12:09:57.023Z,1.20
2023-03-15T12:15:59.300Z,1.80
2023-03-15T12:22:01.313Z,1.70
2023-03-15T12:28:09.683Z,1.40
2023-03-15T12:34:22.863Z,3.63
2023-03-15T12:40:52.925Z,1.17
2023-03-15T12:46:57.537Z,1.63
2023-03-15T12:53:02.000Z,1.30
2023-03-15T12:59:27.543Z,1.60
2023-03-15T13:05:45.219Z,1.60
2023-03-15T13:12:08.356Z,2.17
2023-03-15T13:18:21.928Z,2.03
2023-03-15T13:24:48.908Z,2.97
2023-03-15T13:30:56.060Z,1.27
2023-03-15T13:37:02.144Z,1.97
2023-03-15T13:43:04.073Z,1.80
2023-03-15T13:49:06.592Z,1.00
2023-03-15T13:55:13.347Z,1.60
2023-03-15T14:01:17.035Z,2.90
2023-03-15T14:07:29.985Z,2.30
2023-03-15T14:13:59.918Z,1.40
2023-03-15T14:20:09.299Z,1.27
2023-03-15T14:26:36.673Z,1.80
2023-03-15T14:32:50.741Z,5.47
2023-03-15T14:38:56.717Z,1.97
2023-03-15T14:44:58.576Z,1.20
2023-03-15T14:51:00.530Z,1.07
2023-03-15T14:57:02.461Z,1.67
2023-03-15T15:03:15.165Z,1.27
2023-03-15T15:09:22.843Z,1.50
2023-03-15T15:15:24.769Z,4.43
2023-03-15T15:21:33.629Z,1.53
2023-03-15T15:27:35.996Z,1.23
2023-03-15T15:33:37.878Z,2.63
2023-03-15T15:39:41.496Z,1.47
2023-03-15T15:45:43.424Z,7.10
2023-03-15T15:51:49.654Z,2.27
2023-03-15T15:57:54.009Z,5.10
2023-03-15T16:03:55.905Z,4.47
2023-03-15T16:09:59.345Z,6.37
2023-03-15T16:16:01.382Z,3.50
2023-03-15T16:22:03.471Z,2.93
2023-03-15T16:28:07.831Z,3.87
2023-03-15T16:34:12.758Z,1.60
2023-03-15T16:40:27.055Z,1.93
2023-03-15T16:46:29.018Z,1.87
2023-03-15T16:52:32.734Z,2.17
2023-03-15T16:58:34.668Z,4.07
2023-03-15T17:04:36.572Z,2.20
2023-03-15T17:10:40.208Z,3.10
2023-03-15T17:16:42.676Z,4.50
2023-03-15T17:22:44.690Z,4.10
2023-03-15T17:28:48.158Z,6.73
2023-03-15T17:34:50.060Z,5.57
2023-03-15T17:40:52.670Z,4.47
2023-03-15T17:46:54.691Z,3.07
2023-03-15T17:53:07.762Z,1.73
2023-03-15T17:59:12.384Z,2.00
2023-03-15T18:05:19.647Z,1.50
2023-03-15T18:11:33.797Z,1.20
2023-03-15T18:17:35.741Z,1.53
2023-03-15T18:23:37.678Z,1.17
2023-03-15T18:29:39.663Z,1.20
2023-03-15T18:35:41.633Z,1.10
2023-03-15T18:41:43.533Z,1.70
2023-03-15T18:47:46.211Z,1.30
2023-03-15T18:53:48.737Z,1.17
2023-03-15T18:59:51.322Z,1.87
2023-03-15T19:05:53.663Z,1.63
2023-03-15T19:11:55.569Z,1.77
2023-03-15T19:17:57.511Z,1.87
2023-03-15T19:23:59.533Z,2.80
2023-03-15T19:30:01.975Z,1.63
2023-03-15T19:36:04.709Z,1.90
2023-03-15T19:42:06.654Z,2.07
2023-03-15T19:48:08.623Z,2.60
2023-03-15T19:54:10.609Z,2.27
2023-03-15T20:00:16.077Z,2.07
2023-03-15T20:06:18.229Z,2.30
2023-03-15T20:12:21.253Z,1.90
2023-03-15T20:18:23.429Z,2.13
2023-03-15T20:24:25.481Z,2.13
2023-03-15T20:30:27.490Z,2.90
2023-03-15T20:36:30.012Z,3.00
2023-03-15T20:42:32.826Z,2.90
2023-03-15T20:48:36.173Z,4.07
2023-03-15T20:54:38.128Z,3.93
2023-03-15T21:00:41.067Z,3.40
2023-03-15T21:06:43.062Z,3.50
2023-03-15T21:12:45.042Z,3.00
2023-03-15T21:18:51.690Z,2.90
2023-03-15T21:24:56.145Z,2.97
2023-03-15T21:30:58.634Z,3.60
2023-03-15T21:37:00.644Z,4.07
2023-03-15T21:43:02.637Z,4.20
2023-03-15T21:49:04.709Z,3.30
2023-03-15T21:55:08.359Z,3.40
2023-03-15T22:01:13.969Z,3.23
2023-03-15T22:07:16.047Z,3.40
2023-03-15T22:13:17.937Z,5.23
2023-03-15T22:19:19.860Z,4.60
2023-03-15T22:25:21.851Z,4.07
2023-03-15T22:31:23.780Z,3.80
2023-03-15T22:37:25.849Z,3.20
2023-03-15T22:43:27.847Z,2.83
2023-03-15T22:49:29.770Z,2.93
2023-03-15T22:55:31.642Z,3.33
2023-03-15T23:01:33.633Z,4.23
2023-03-15T23:07:35.661Z,4.30
2023-03-15T23:13:37.992Z,3.50
2023-03-15T23:19:40.422Z,4.40
2023-03-15T23:25:43.100Z,3.00
2023-03-15T23:31:45.038Z,3.80
2023-03-15T23:37:47.409Z,3.67
2023-03-15T23:43:49.300Z,3.70
2023-03-15T23:49:51.848Z,3.80
2023-03-15T23:55:54.628Z,3.40
